createdAt,value
2022-10-25T00:01:33.975Z,97.40
2022-10-25T00:04:01.697Z,100.00
2022-10-25T00:06:29.145Z,99.52
2022-10-25T00:08:56.839Z,99.30
2022-10-25T00:11:25.458Z,100.00
2022-10-25T00:13:54.893Z,100.00
2022-10-25T00:16:23.021Z,100.00
2022-10-25T00:18:50.745Z,100.00
2022-10-25T00:21:18.239Z,100.00
2022-10-25T00:23:45.728Z,100.00
2022-10-25T00:26:13.221Z,100.00
2022-10-25T00:28:41.140Z,100.00
2022-10-25T00:31:10.781Z,100.00
2022-10-25T00:33:38.537Z,100.00
2022-10-25T00:36:06.589Z,100.00
2022-10-25T00:38:34.063Z,99.95
2022-10-25T00:41:01.797Z,100.00
2022-10-25T00:43:33.084Z,100.00
2022-10-25T00:48:34.649Z,100.00
2022-10-25T00:51:02.153Z,99.98
2022-10-25T00:53:30.112Z,100.00
2022-10-25T00:55:59.693Z,100.00
2022-10-25T00:58:27.548Z,100.00
2022-10-25T01:00:56.568Z,100.00
2022-10-25T01:03:24.089Z,99.98
2022-10-25T01:05:53.016Z,100.00
2022-10-25T01:08:20.488Z,100.00
2022-10-25T01:10:47.991Z,100.00
2022-10-25T01:13:15.468Z,100.00
2022-10-25T01:15:46.274Z,100.00
2022-10-25T01:18:14.601Z,100.00
2022-10-25T01:20:48.449Z,100.00
2022-10-25T01:23:29.092Z,100.00
2022-10-25T01:26:01.300Z,100.00
2022-10-25T01:28:31.785Z,100.00
2022-10-25T01:31:14.092Z,100.00
2022-10-25T01:33:43.965Z,100.00
2022-10-25T01:38:42.607Z,100.00
2022-10-25T01:41:12.188Z,100.00
2022-10-25T01:43:41.379Z,100.00
2022-10-25T01:46:10.635Z,100.00
2022-10-25T01:48:38.690Z,100.00
2022-10-25T01:51:10.019Z,100.00
2022-10-25T01:53:44.553Z,100.00
2022-10-25T01:56:12.018Z,100.00
2022-10-25T01:58:39.759Z,99.19
2022-10-25T02:01:09.500Z,100.00
2022-10-25T02:03:37.629Z,100.00
2022-10-25T02:06:10.441Z,100.00
2022-10-25T02:08:38.577Z,100.00
2022-10-25T02:11:07.500Z,100.00
2022-10-25T02:13:38.765Z,100.00
2022-10-25T02:16:06.885Z,100.00
2022-10-25T02:18:35.076Z,100.00
2022-10-25T02:21:02.592Z,100.00
2022-10-25T02:23:31.462Z,100.00
2022-10-25T02:25:58.908Z,100.00
2022-10-25T02:28:26.706Z,100.00
2022-10-25T02:30:54.179Z,98.58
2022-10-25T02:33:21.604Z,100.00
2022-10-25T02:36:03.950Z,100.00
2022-10-25T02:38:32.774Z,100.00
2022-10-25T02:41:00.206Z,100.00
2022-10-25T02:46:00.461Z,98.53
2022-10-25T02:48:27.924Z,100.00
2022-10-25T02:50:55.369Z,100.00
2022-10-25T02:53:22.810Z,100.00
2022-10-25T02:55:51.632Z,100.00
2022-10-25T02:58:19.085Z,100.00
2022-10-25T03:00:46.682Z,100.00
2022-10-25T03:03:14.169Z,96.45
2022-10-25T03:05:41.663Z,96.81
2022-10-25T03:08:09.146Z,100.00
2022-10-25T03:10:37.759Z,100.00
2022-10-25T03:13:06.578Z,100.00
2022-10-25T03:15:34.045Z,99.60
2022-10-25T03:18:01.477Z,98.59
2022-10-25T03:20:28.980Z,100.00
2022-10-25T03:22:56.492Z,100.00
2022-10-25T03:25:23.941Z,100.00
2022-10-25T03:27:51.396Z,100.00
2022-10-25T03:30:20.413Z,100.00
2022-10-25T03:32:47.882Z,100.00
2022-10-25T03:35:15.401Z,100.00
2022-10-25T03:37:42.897Z,99.66
2022-10-25T03:40:11.058Z,100.00
2022-10-25T03:42:38.522Z,100.00
2022-10-25T03:45:06.538Z,100.00
2022-10-25T03:47:35.445Z,100.00
2022-10-25T03:50:02.893Z,100.00
2022-10-25T03:52:30.355Z,100.00
2022-10-25T03:54:57.821Z,100.00
2022-10-25T03:57:25.303Z,100.00
2022-10-25T03:59:52.741Z,100.00
2022-10-25T04:02:20.225Z,100.00
2022-10-25T04:04:49.044Z,100.00
2022-10-25T04:07:16.564Z,100.00
2022-10-25T04:09:44.004Z,100.00
2022-10-25T04:12:11.489Z,100.00
2022-10-25T04:14:38.993Z,100.00
2022-10-25T04:17:06.457Z,100.00
2022-10-25T04:19:33.964Z,100.00
2022-10-25T04:22:02.950Z,100.00
2022-10-25T04:24:30.561Z,100.00
2022-10-25T04:26:58.013Z,100.00
2022-10-25T04:29:25.930Z,100.00
2022-10-25T04:31:53.361Z,100.00
2022-10-25T04:34:20.819Z,100.00
2022-10-25T04:36:48.272Z,100.00
2022-10-25T04:39:17.073Z,100.00
2022-10-25T04:41:44.561Z,100.00
2022-10-25T04:44:12.003Z,100.00
2022-10-25T04:46:39.498Z,100.00
2022-10-25T04:49:06.938Z,100.00
2022-10-25T04:51:34.641Z,100.00
2022-10-25T04:54:02.100Z,100.00
2022-10-25T04:56:30.899Z,100.00
2022-10-25T04:58:59.101Z,100.00
2022-10-25T05:01:26.724Z,100.00
2022-10-25T05:03:54.249Z,100.00
2022-10-25T05:06:22.423Z,100.00
2022-10-25T05:08:50.648Z,100.00
2022-10-25T05:11:18.472Z,100.00
2022-10-25T05:13:47.850Z,100.00
2022-10-25T05:16:17.281Z,100.00
2022-10-25T05:18:46.263Z,100.00
2022-10-25T05:21:13.780Z,100.00
2022-10-25T05:23:41.622Z,100.00
2022-10-25T05:26:09.772Z,100.00
2022-10-25T05:28:37.515Z,100.00
2022-10-25T05:31:06.712Z,100.00
2022-10-25T05:33:34.272Z,100.00
2022-10-25T05:36:01.739Z,100.00
2022-10-25T05:38:30.388Z,100.00
2022-10-25T05:43:27.863Z,100.00
2022-10-25T05:46:03.338Z,100.00
2022-10-25T05:48:32.221Z,100.00
2022-10-25T05:51:21.260Z,100.00
2022-10-25T05:53:56.717Z,100.00
2022-10-25T05:56:24.613Z,100.00
2022-10-25T05:58:52.311Z,100.00
2022-10-25T06:01:20.446Z,100.00
2022-10-25T06:03:49.774Z,100.00
2022-10-25T06:06:17.276Z,100.00
2022-10-25T06:08:44.727Z,100.00
2022-10-25T06:11:12.807Z,100.00
2022-10-25T06:13:40.357Z,100.00
2022-10-25T06:16:08.661Z,100.00
2022-10-25T06:18:38.365Z,100.00
2022-10-25T06:21:07.923Z,100.00
2022-10-25T06:23:36.378Z,100.00
2022-10-25T06:26:04.744Z,100.00
2022-10-25T06:28:32.326Z,100.00
2022-10-25T06:31:02.988Z,100.00
2022-10-25T06:33:30.460Z,100.00
2022-10-25T06:35:57.976Z,100.00
2022-10-25T06:38:27.017Z,100.00
2022-10-25T06:40:59.041Z,100.00
2022-10-25T06:43:26.566Z,100.00
2022-10-25T06:45:54.180Z,100.00
2022-10-25T06:48:21.767Z,100.00
2022-10-25T06:50:52.120Z,100.00
2022-10-25T06:53:19.757Z,100.00
2022-10-25T06:55:49.513Z,100.00
2022-10-25T06:58:16.981Z,100.00
2022-10-25T07:00:46.119Z,100.00
2022-10-25T07:03:17.192Z,100.00
2022-10-25T07:05:44.831Z,100.00
2022-10-25T07:08:12.454Z,100.00
2022-10-25T07:10:40.099Z,100.00
2022-10-25T07:13:09.170Z,100.00
2022-10-25T07:15:38.708Z,100.00
2022-10-25T07:18:09.110Z,100.00
2022-10-25T07:20:36.755Z,100.00
2022-10-25T07:23:06.614Z,100.00
2022-10-25T07:25:36.282Z,100.00
2022-10-25T07:28:03.937Z,100.00
2022-10-25T07:30:32.908Z,100.00
2022-10-25T07:33:00.624Z,99.19
2022-10-25T07:35:28.302Z,98.66
2022-10-25T07:37:55.909Z,98.05
2022-10-25T07:40:23.615Z,100.00
2022-10-25T07:42:51.280Z,100.00
2022-10-25T07:45:22.305Z,100.00
2022-10-25T07:47:53.567Z,100.00
2022-10-25T07:50:21.177Z,100.00
2022-10-25T07:52:48.842Z,100.00
2022-10-25T07:55:16.594Z,100.00
2022-10-25T07:57:44.369Z,97.97
2022-10-25T08:00:12.953Z,99.48
2022-10-25T08:02:41.105Z,100.00
2022-10-25T08:05:10.842Z,100.00
2022-10-25T08:07:38.449Z,99.18
2022-10-25T08:10:06.809Z,100.00
2022-10-25T08:12:34.450Z,95.78
2022-10-25T08:15:02.050Z,90.15
2022-10-25T08:17:29.722Z,91.36
2022-10-25T08:19:57.359Z,91.30
2022-10-25T08:22:26.357Z,92.17
2022-10-25T08:24:53.983Z,92.04
2022-10-25T08:27:22.046Z,93.72
2022-10-25T08:29:49.697Z,98.73
2022-10-25T08:32:17.382Z,99.15
2022-10-25T08:34:45.026Z,98.84
2022-10-25T08:37:13.121Z,99.71
2022-10-25T08:39:42.115Z,94.34
2022-10-25T08:42:16.950Z,95.36
2022-10-25T08:44:47.100Z,99.03
2022-10-25T08:47:18.713Z,94.83
2022-10-25T08:49:52.931Z,93.22
2022-10-25T08:52:26.026Z,89.41
2022-10-25T08:54:59.276Z,86.90
2022-10-25T08:57:32.352Z,93.30
2022-10-25T09:00:07.100Z,96.62
2022-10-25T09:02:39.674Z,93.34
2022-10-25T09:05:14.734Z,92.19
2022-10-25T09:07:56.869Z,96.56
2022-10-25T09:10:34.030Z,95.46
2022-10-25T09:13:09.872Z,89.89
2022-10-25T09:15:46.770Z,84.28
2022-10-25T09:18:16.749Z,88.25
2022-10-25T09:20:49.937Z,82.29
2022-10-25T09:23:25.384Z,83.04
2022-10-25T09:26:04.957Z,83.94
2022-10-25T09:28:46.198Z,85.02
2022-10-25T09:31:17.484Z,82.10
2022-10-25T09:33:47.577Z,85.14
2022-10-25T09:36:15.976Z,84.23
2022-10-25T09:38:46.337Z,85.20
2022-10-25T09:41:19.153Z,88.41
2022-10-25T09:43:50.502Z,85.51
2022-10-25T09:46:20.693Z,88.36
2022-10-25T09:48:51.849Z,88.75
2022-10-25T09:51:22.758Z,85.63
2022-10-25T09:53:50.702Z,89.25
2022-10-25T09:56:19.717Z,83.04
2022-10-25T09:58:47.936Z,85.67
2022-10-25T10:01:18.291Z,84.00
2022-10-25T10:03:48.922Z,87.93
2022-10-25T10:06:23.027Z,84.53
2022-10-25T10:08:52.935Z,78.36
2022-10-25T10:11:22.122Z,87.57
2022-10-25T10:13:51.939Z,82.67
2022-10-25T10:16:23.134Z,80.76
2022-10-25T10:18:50.874Z,78.54
2022-10-25T10:21:20.190Z,78.00
2022-10-25T10:23:53.512Z,78.67
2022-10-25T10:26:29.631Z,82.67
2022-10-25T10:29:08.691Z,81.01
2022-10-25T10:31:38.248Z,87.79
2022-10-25T10:34:06.051Z,86.28
2022-10-25T10:36:34.228Z,80.96
2022-10-25T10:39:20.868Z,78.58
2022-10-25T10:42:03.100Z,77.73
2022-10-25T10:44:34.450Z,75.94
2022-10-25T10:47:03.617Z,79.22
2022-10-25T10:49:36.354Z,75.87
2022-10-25T10:52:04.466Z,78.17
2022-10-25T10:54:34.232Z,79.96
2022-10-25T10:57:04.345Z,75.84
2022-10-25T10:59:36.608Z,76.47
2022-10-25T11:02:24.906Z,75.00
2022-10-25T11:04:54.625Z,72.82
2022-10-25T11:07:28.909Z,69.41
2022-10-25T11:10:18.409Z,75.67
2022-10-25T11:13:05.272Z,76.45
2022-10-25T11:15:38.621Z,75.98
2022-10-25T11:18:07.277Z,71.02
2022-10-25T11:20:47.320Z,71.83
2022-10-25T11:23:18.424Z,71.09
2022-10-25T11:25:51.183Z,67.30
2022-10-25T11:28:38.695Z,70.45
2022-10-25T11:31:07.989Z,68.78
2022-10-25T11:33:38.594Z,71.43
2022-10-25T11:36:09.877Z,68.30
2022-10-25T11:38:41.412Z,71.84
2022-10-25T11:41:12.836Z,65.69
2022-10-25T11:43:49.316Z,68.20
2022-10-25T11:46:17.770Z,69.47
2022-10-25T11:48:52.225Z,70.68
2022-10-25T11:51:22.344Z,64.98
2022-10-25T11:53:58.452Z,62.71
2022-10-25T11:56:27.408Z,64.98
2022-10-25T11:58:57.979Z,63.10
2022-10-25T12:01:30.148Z,62.68
2022-10-25T12:04:01.450Z,67.22
2022-10-25T12:06:30.657Z,68.54
2022-10-25T12:09:03.202Z,68.98
2022-10-25T12:11:31.322Z,66.38
2022-10-25T12:14:00.703Z,65.33
2022-10-25T12:16:28.157Z,61.89
2022-10-25T12:18:58.260Z,65.99
2022-10-25T12:21:27.856Z,66.79
2022-10-25T12:23:55.753Z,65.77
2022-10-25T12:26:25.221Z,63.62
2022-10-25T12:28:52.750Z,61.64
2022-10-25T12:31:21.843Z,60.35
2022-10-25T12:33:50.409Z,65.99
2022-10-25T12:36:20.440Z,63.42
2022-10-25T12:38:47.905Z,63.24
2022-10-25T12:41:16.714Z,68.05
2022-10-25T12:43:45.144Z,67.00
2022-10-25T12:46:17.272Z,65.96
2022-10-25T12:49:00.506Z,66.17
2022-10-25T12:51:39.053Z,69.09
2022-10-25T12:54:24.320Z,63.37
2022-10-25T12:56:55.493Z,60.03
2022-10-25T12:59:33.357Z,64.53
2022-10-25T13:02:04.180Z,64.11
2022-10-25T13:04:42.558Z,66.96
2022-10-25T13:07:10.073Z,67.34
2022-10-25T13:09:37.776Z,66.83
2022-10-25T13:12:05.690Z,63.60
2022-10-25T13:14:33.677Z,62.23
2022-10-25T13:17:19.796Z,63.62
2022-10-25T13:19:54.453Z,64.76
2022-10-25T13:22:35.704Z,63.41
2022-10-25T13:25:17.622Z,63.27
2022-10-25T13:27:59.930Z,62.94
2022-10-25T13:30:28.233Z,62.75
2022-10-25T13:33:14.423Z,65.92
2022-10-25T13:35:59.642Z,65.47
2022-10-25T13:38:27.331Z,66.37
2022-10-25T13:41:13.328Z,69.85
2022-10-25T13:44:01.589Z,68.12
2022-10-25T13:46:32.870Z,69.68
2022-10-25T13:49:01.167Z,71.08
2022-10-25T13:51:29.977Z,70.92
2022-10-25T13:53:57.415Z,68.44
2022-10-25T13:56:33.752Z,65.52
2022-10-25T13:59:01.318Z,68.18
2022-10-25T14:01:56.651Z,66.85
2022-10-25T14:04:33.725Z,67.86
2022-10-25T14:07:16.065Z,67.86
2022-10-25T14:09:44.849Z,70.60
2022-10-25T14:12:15.614Z,68.99
2022-10-25T14:14:45.292Z,71.10
2022-10-25T14:17:14.872Z,68.77
2022-10-25T14:19:42.921Z,69.21
2022-10-25T14:22:14.189Z,72.61
2022-10-25T14:24:41.706Z,70.65
2022-10-25T14:27:25.178Z,70.65
2022-10-25T14:29:52.654Z,69.43
2022-10-25T14:32:20.233Z,71.56
2022-10-25T14:34:49.445Z,68.36
2022-10-25T14:37:16.911Z,68.20
2022-10-25T14:39:52.008Z,68.60
2022-10-25T14:42:20.937Z,71.42
2022-10-25T14:44:48.948Z,67.41
2022-10-25T14:47:27.236Z,68.99
2022-10-25T14:49:54.814Z,69.60
2022-10-25T14:52:22.264Z,70.74
2022-10-25T14:54:53.612Z,68.92
2022-10-25T14:57:24.854Z,72.03
2022-10-25T14:59:52.960Z,68.40
2022-10-25T15:02:21.113Z,69.11
2022-10-25T15:04:49.744Z,67.87
2022-10-25T15:07:19.729Z,69.41
2022-10-25T15:09:49.130Z,67.57
2022-10-25T15:12:17.725Z,67.84
2022-10-25T15:14:48.226Z,69.18
2022-10-25T15:17:20.642Z,68.70
2022-10-25T15:20:14.921Z,69.26
2022-10-25T15:22:43.366Z,70.13
2022-10-25T15:25:17.610Z,70.15
2022-10-25T15:27:45.086Z,68.48
2022-10-25T15:30:27.464Z,74.59
2022-10-25T15:32:56.260Z,70.80
2022-10-25T15:35:24.259Z,69.83
2022-10-25T15:37:51.708Z,70.86
2022-10-25T15:40:19.925Z,70.72
2022-10-25T15:42:47.606Z,69.15
2022-10-25T15:45:15.585Z,67.87
2022-10-25T15:47:43.050Z,69.82
2022-10-25T15:50:14.101Z,72.74
2022-10-25T15:52:41.589Z,72.66
2022-10-25T15:55:11.209Z,70.76
2022-10-25T15:57:38.657Z,70.10
2022-10-25T16:00:06.991Z,72.05
2022-10-25T16:02:34.425Z,71.83
2022-10-25T16:05:01.892Z,72.81
2022-10-25T16:07:31.095Z,71.70
2022-10-25T16:09:58.537Z,73.48
2022-10-25T16:12:26.869Z,73.86
2022-10-25T16:14:54.349Z,74.07
2022-10-25T16:17:21.825Z,73.98
2022-10-25T16:19:49.316Z,73.49
2022-10-25T16:22:16.842Z,72.91
2022-10-25T16:24:45.688Z,73.77
2022-10-25T16:27:13.305Z,73.76
2022-10-25T16:29:40.798Z,74.90
2022-10-25T16:32:08.277Z,75.27
2022-10-25T16:34:35.748Z,75.96
2022-10-25T16:37:05.490Z,76.38
2022-10-25T16:39:35.127Z,76.36
2022-10-25T16:42:03.946Z,76.70
2022-10-25T16:44:31.664Z,77.12
2022-10-25T16:46:59.903Z,77.61
2022-10-25T16:49:27.375Z,77.21
2022-10-25T16:51:54.813Z,77.90
2022-10-25T16:54:24.300Z,77.25
2022-10-25T16:56:51.923Z,78.71
2022-10-25T16:59:20.726Z,79.07
2022-10-25T17:01:48.232Z,78.05
2022-10-25T17:04:15.776Z,78.66
2022-10-25T17:06:43.279Z,79.19
2022-10-25T17:09:10.828Z,81.96
2022-10-25T17:11:38.299Z,81.83
2022-10-25T17:14:05.806Z,83.25
2022-10-25T17:16:34.638Z,81.97
2022-10-25T17:19:03.201Z,82.44
2022-10-25T17:21:31.449Z,81.68
2022-10-25T17:23:58.898Z,81.43
2022-10-25T17:26:26.370Z,80.74
2022-10-25T17:28:54.279Z,80.46
2022-10-25T17:31:21.757Z,81.16
2022-10-25T17:33:50.611Z,81.31
2022-10-25T17:36:18.505Z,81.06
2022-10-25T17:38:46.277Z,81.30
2022-10-25T17:41:13.914Z,83.09
2022-10-25T17:43:41.836Z,83.74
2022-10-25T17:46:10.450Z,84.81
2022-10-25T17:48:37.990Z,83.69
2022-10-25T17:51:07.759Z,83.06
2022-10-25T17:53:35.269Z,82.79
2022-10-25T17:56:10.608Z,81.58
2022-10-25T17:58:38.139Z,81.23
2022-10-25T18:01:06.364Z,81.75
2022-10-25T18:03:34.366Z,80.56
2022-10-25T18:06:02.143Z,82.63
2022-10-25T18:08:31.307Z,82.36
2022-10-25T18:10:59.103Z,83.96
2022-10-25T18:13:27.029Z,83.58
2022-10-25T18:15:54.598Z,84.14
2022-10-25T18:18:22.096Z,84.25
2022-10-25T18:20:51.508Z,83.50
2022-10-25T18:23:19.169Z,82.94
2022-10-25T18:25:52.849Z,84.23
2022-10-25T18:28:20.428Z,83.13
2022-10-25T18:30:47.863Z,83.06
2022-10-25T18:33:16.052Z,82.85
2022-10-25T18:35:43.507Z,82.79
2022-10-25T18:38:13.625Z,82.32
2022-10-25T18:40:43.224Z,83.11
2022-10-25T18:43:12.056Z,84.20
2022-10-25T18:45:39.518Z,83.95
2022-10-25T18:48:07.046Z,83.72
2022-10-25T18:50:39.160Z,84.47
2022-10-25T18:53:09.261Z,84.32
2022-10-25T18:55:36.700Z,86.65
2022-10-25T18:58:04.144Z,85.98
2022-10-25T19:00:32.980Z,84.79
2022-10-25T19:03:00.408Z,85.79
2022-10-25T19:05:28.344Z,86.57
2022-10-25T19:07:55.861Z,85.51
2022-10-25T19:10:23.477Z,85.39
2022-10-25T19:12:51.813Z,86.32
2022-10-25T19:15:19.297Z,85.07
2022-10-25T19:17:51.857Z,85.12
2022-10-25T19:20:19.565Z,84.82
2022-10-25T19:22:47.026Z,84.98
2022-10-25T19:25:14.509Z,84.74
2022-10-25T19:27:42.081Z,84.84
2022-10-25T19:30:09.986Z,84.25
2022-10-25T19:32:37.449Z,82.68
2022-10-25T19:35:06.709Z,83.43
2022-10-25T19:37:34.146Z,84.62
2022-10-25T19:40:02.764Z,84.30
2022-10-25T19:42:30.239Z,85.16
2022-10-25T19:47:30.070Z,83.19
2022-10-25T19:49:57.521Z,83.86
2022-10-25T19:52:26.500Z,85.04
2022-10-25T19:54:54.024Z,84.73
2022-10-25T19:57:21.594Z,84.94
2022-10-25T19:59:49.060Z,84.70
2022-10-25T20:02:16.563Z,85.35
2022-10-25T20:04:44.198Z,85.24
2022-10-25T20:07:11.646Z,85.72
2022-10-25T20:09:41.185Z,85.46
2022-10-25T20:12:08.769Z,86.70
2022-10-25T20:14:37.634Z,86.79
2022-10-25T20:17:05.641Z,85.27
2022-10-25T20:19:33.149Z,85.25
2022-10-25T20:22:00.685Z,85.35
2022-10-25T20:24:28.455Z,86.90
2022-10-25T20:26:57.273Z,85.75
2022-10-25T20:29:24.817Z,85.44
2022-10-25T20:31:53.029Z,84.56
2022-10-25T20:34:20.613Z,84.42
2022-10-25T20:36:48.100Z,84.85
2022-10-25T20:39:15.616Z,84.22
2022-10-25T20:41:43.089Z,83.85
2022-10-25T20:44:12.097Z,82.73
2022-10-25T20:46:39.588Z,83.33
2022-10-25T20:49:07.490Z,82.89
2022-10-25T20:51:36.092Z,82.46
2022-10-25T20:54:09.198Z,81.81
2022-10-25T20:56:39.191Z,82.20
2022-10-25T20:59:06.777Z,81.40
2022-10-25T21:01:35.743Z,82.78
2022-10-25T21:04:03.491Z,82.01
2022-10-25T21:06:30.920Z,82.66
2022-10-25T21:08:58.522Z,81.52
2022-10-25T21:11:28.959Z,83.13
2022-10-25T21:13:56.425Z,81.72
2022-10-25T21:16:23.851Z,82.41
2022-10-25T21:18:52.649Z,83.04
2022-10-25T21:21:20.691Z,82.27
2022-10-25T21:23:48.285Z,82.70
2022-10-25T21:26:15.844Z,81.89
2022-10-25T21:28:43.317Z,82.46
2022-10-25T21:31:11.147Z,83.82
2022-10-25T21:33:38.835Z,83.74
2022-10-25T21:36:08.481Z,82.89
2022-10-25T21:38:35.937Z,82.77
2022-10-25T21:41:07.538Z,81.24
2022-10-25T21:43:35.128Z,82.81
2022-10-25T21:46:04.818Z,83.29
2022-10-25T21:48:32.255Z,82.43
2022-10-25T21:50:59.827Z,82.62
2022-10-25T21:53:28.833Z,83.43
2022-10-25T21:56:06.393Z,83.80
2022-10-25T21:58:33.873Z,84.17
2022-10-25T22:01:01.320Z,83.37
2022-10-25T22:03:29.665Z,83.58
2022-10-25T22:05:57.109Z,82.71
2022-10-25T22:08:24.728Z,81.89
2022-10-25T22:10:57.063Z,83.23
2022-10-25T22:13:24.553Z,81.53
2022-10-25T22:15:55.892Z,82.75
2022-10-25T22:18:23.344Z,82.34
2022-10-25T22:20:53.733Z,80.85
2022-10-25T22:23:21.237Z,82.82
2022-10-25T22:25:48.808Z,83.85
2022-10-25T22:28:17.595Z,84.71
2022-10-25T22:30:45.037Z,84.05
2022-10-25T22:33:12.558Z,86.30
2022-10-25T22:35:39.996Z,89.44
2022-10-25T22:38:07.561Z,86.01
2022-10-25T22:40:35.021Z,85.29
2022-10-25T22:43:03.672Z,85.16
2022-10-25T22:45:32.471Z,85.52
2022-10-25T22:47:59.931Z,85.27
2022-10-25T22:50:27.429Z,83.71
2022-10-25T22:52:54.874Z,84.44
2022-10-25T22:55:22.329Z,84.58
2022-10-25T22:57:49.992Z,85.93
2022-10-25T23:00:17.723Z,85.83
2022-10-25T23:02:46.752Z,85.10
2022-10-25T23:05:14.390Z,85.20
2022-10-25T23:07:41.844Z,85.05
2022-10-25T23:10:09.750Z,85.17
2022-10-25T23:12:37.182Z,85.12
2022-10-25T23:15:04.800Z,84.78
2022-10-25T23:17:32.268Z,85.18
2022-10-25T23:20:01.106Z,85.11
2022-10-25T23:22:28.557Z,85.30
2022-10-25T23:24:56.026Z,85.20
2022-10-25T23:27:23.529Z,84.58
2022-10-25T23:29:50.997Z,83.97
2022-10-25T23:32:19.562Z,84.56
2022-10-25T23:34:46.994Z,84.17
2022-10-25T23:37:15.818Z,85.13
2022-10-25T23:39:43.298Z,86.54
2022-10-25T23:42:10.773Z,84.23
2022-10-25T23:44:38.200Z,83.64
2022-10-25T23:47:05.709Z,84.14
2022-10-25T23:49:33.146Z,84.27
2022-10-25T23:52:00.622Z,84.59
2022-10-25T23:54:29.428Z,85.57
2022-10-25T23:56:56.897Z,85.79
